Otwell, Indiana
Current Conditions -  °F | °C
As of 7:35 PM on Monday 20 Oct 2014 (Local Time) from KHNB Reporting Station
Few Clouds Few Clouds  
Wind Chill: 59°   Ceiling: Unl
Heat Index: 59°   Visibility: 10mi
Dew Point: 48°   Wind: 7mph
Humidity: 67%   Direction: 340°NNW
Pressure: 29.94"   Gusts: NA
Location:  38.45°N, 87.09°W
Report Text: KHNB 210035Z AUTO 34006KT 10SM FEW065 15/09 A2994 RMK AO1
Loading
Personal Weather Stations






























Interactive Weather Map
Tropical Storm Tracking
New forecast layout! Learn more

10-Day Weather Forecast

Advertisements
Track Severe Weather on mobile